Bay Bridge — 3FCS5 — position and weather

sailwx.info

Track history (hours):
 
Tides and Currents Weather Stations Pressure Air Temp Water Temp Dewpoint Dewpoint Depression Visibility Wind Speed Wind Dir Waves Ship Positions

Bay Bridge

Last reported at 2017-Jan-19 07:33 UTC. Time now 2017-Jan-19 23:26 UTC.
Position N 37°30' W 123°10'.

Length 267 m; draft 11.6 m.

Type: Ship (hazmat cat A). MMSI: 354120000.

Date/timePositionNaut miles runAvg speedWind from/ knotsBaromVisibWave heightAir tempDewpointWater temp
2017-Jan-19 07:33N 37°30' W 123°10'1817.4
2017-Jan-19 06:33N 37°40' W 122°52'1313.4
2017-Jan-19 05:33N 37°46' W 122°37'1312.9
2017-Jan-19 04:34N 37°48' W 122°21'1 1.1
2017-Jan-19 03:32N 37°49' W 122°20'0 0.0
2017-Jan-19 02:32N 37°49' W 122°20'0 0.0
2017-Jan-19 01:32N 37°49' W 122°20'0 0.0
2017-Jan-19 00:32N 37°49' W 122°20'0 0.0
2017-Jan-18 23:32N 37°49' W 122°20'0 0.0
2017-Jan-18 22:32N 37°49' W 122°20'0 0.0
2017-Jan-18 21:32N 37°49' W 122°20'0 0.0
2017-Jan-18 20:32N 37°49' W 122°20'0 0.0
2017-Jan-18 19:32N 37°49' W 122°20'0 0.0
2017-Jan-18 18:32N 37°49' W 122°20'0 0.0
2017-Jan-18 17:32N 37°49' W 122°20'0 0.0
2017-Jan-18 16:32N 37°49' W 122°20'0 0.0
2017-Jan-18 15:32N 37°49' W 122°20'0 0.0
2017-Jan-18 14:32N 37°49' W 122°20'6 6.4
2017-Jan-18 13:33N 37°49' W 122°27'1312.5
2017-Jan-18 12:33N 37°43' W 122°41'8 8.0
2017-Jan-18 11:34N 37°35' W 122°40'1010.2
2017-Jan-18 10:33N 37°25' W 122°40'1110.4
2017-Jan-18 09:31N 37°14' W 122°40'1010.4
2017-Jan-18 08:33N 37°04' W 122°38'1110.4
2017-Jan-18 07:29N 36°54' W 122°33'1010.6
2017-Jan-18 06:33N 36°45' W 122°28'1211.5
2017-Jan-18 05:33N 36°34' W 122°23'1111.4
2017-Jan-18 04:33N 36°24' W 122°18'1211.9
2017-Jan-18 03:33N 36°13' W 122°11'1212.5
2017-Jan-18 02:33N 36°02' W 122°03'1212.5
2017-Jan-18 01:33N 35°51' W 121°55'1312.6
2017-Jan-18 00:33N 35°41' W 121°47'1212.4
2017-Jan-17 23:33N 35°30' W 121°39'1212.5
2017-Jan-17 22:33N 35°19' W 121°32'1312.8
2017-Jan-17 21:33N 35°08' W 121°24'1313.0
2017-Jan-17 20:33N 34°57' W 121°16'1111.5
2017-Jan-17 19:33N 34°47' W 121°09'1311.0
2017-Jan-17 18:21N 34°36' W 121°00'911.0
2017-Jan-17 17:32N 34°28' W 120°55'4410.9
2017-Jan-17 13:31N 34°15' W 120°04'1010.8
2017-Jan-17 12:34N 34°12' W 119°52'1110.8
2017-Jan-17 11:34N 34°10' W 119°39'1111.3
2017-Jan-17 10:33N 34°07' W 119°26'1111.4
2017-Jan-17 09:33N 34°03' W 119°13'1111.3
2017-Jan-17 08:33N 33°58' W 119°01'1110.6
2017-Jan-17 07:33N 33°52' W 118°50'1010.4
2017-Jan-17 06:34N 33°47' W 118°39'1110.1
2017-Jan-17 05:29N 33°42' W 118°28'13 9.5
2017-Jan-17 04:06N 33°38' W 118°13'5 9.4
2017-Jan-17 03:33N 33°43' W 118°11'2 0.4
2017-Jan-16 23:20N 33°45' W 118°12'0 0.0
2017-Jan-15 08:14N 33°45' W 118°12'0 0.0
2017-Jan-15 07:26N 33°45' W 118°12'0 0.0
2017-Jan-15 06:20N 33°45' W 118°12'0 0.0
2017-Jan-15 05:32N 33°45' W 118°12'0 0.0
2017-Jan-15 02:23N 33°45' W 118°12'0 0.0
2017-Jan-15 01:32N 33°45' W 118°12'0 0.0
2017-Jan-15 00:32N 33°45' W 118°12'0 0.0
2017-Jan-14 23:26N 33°45' W 118°12'0 0.0
2017-Jan-14 22:32N 33°45' W 118°12'0 0.0
2017-Jan-14 21:32N 33°45' W 118°12'0 0.0
2017-Jan-14 20:20N 33°45' W 118°12'0 0.0
2017-Jan-14 19:29N 33°45' W 118°12'0 0.0
2017-Jan-13 13:23N 33°45' W 118°12'5 5.9
2017-Jan-13 12:30N 33°39' W 118°11'5 5.0
2017-Jan-13 11:33N 33°36' W 118°15'  
Track history (hours):
 
Tides and Currents Weather Stations Pressure Air Temp Water Temp Dewpoint Dewpoint Depression Visibility Wind Speed Wind Dir Waves Ship Positions

Bay Bridge

Last reported at 2017-Jan-19 07:33 UTC. Time now 2017-Jan-19 23:26 UTC.
Position N 37°30' W 123°10'.

Length 267 m; draft 11.6 m.

Type: Ship (hazmat cat A). MMSI: 354120000.

Date/timePositionNaut miles runAvg speedWind from/ knotsBaromVisibWave heightAir tempDewpointWater temp
2017-Jan-19 07:33N 37°30' W 123°10'1817.4
2017-Jan-19 06:33N 37°40' W 122°52'1313.4
2017-Jan-19 05:33N 37°46' W 122°37'1312.9
2017-Jan-19 04:34N 37°48' W 122°21'1 1.1
2017-Jan-19 03:32N 37°49' W 122°20'0 0.0
2017-Jan-19 02:32N 37°49' W 122°20'0 0.0
2017-Jan-19 01:32N 37°49' W 122°20'0 0.0
2017-Jan-19 00:32N 37°49' W 122°20'0 0.0
2017-Jan-18 23:32N 37°49' W 122°20'0 0.0
2017-Jan-18 22:32N 37°49' W 122°20'0 0.0
2017-Jan-18 21:32N 37°49' W 122°20'0 0.0
2017-Jan-18 20:32N 37°49' W 122°20'0 0.0
2017-Jan-18 19:32N 37°49' W 122°20'0 0.0
2017-Jan-18 18:32N 37°49' W 122°20'0 0.0
2017-Jan-18 17:32N 37°49' W 122°20'0 0.0
2017-Jan-18 16:32N 37°49' W 122°20'0 0.0
2017-Jan-18 15:32N 37°49' W 122°20'0 0.0
2017-Jan-18 14:32N 37°49' W 122°20'6 6.4
2017-Jan-18 13:33N 37°49' W 122°27'1312.5
2017-Jan-18 12:33N 37°43' W 122°41'8 8.0
2017-Jan-18 11:34N 37°35' W 122°40'1010.2
2017-Jan-18 10:33N 37°25' W 122°40'1110.4
2017-Jan-18 09:31N 37°14' W 122°40'1010.4
2017-Jan-18 08:33N 37°04' W 122°38'1110.4
2017-Jan-18 07:29N 36°54' W 122°33'1010.6
2017-Jan-18 06:33N 36°45' W 122°28'1211.5
2017-Jan-18 05:33N 36°34' W 122°23'1111.4
2017-Jan-18 04:33N 36°24' W 122°18'1211.9
2017-Jan-18 03:33N 36°13' W 122°11'1212.5
2017-Jan-18 02:33N 36°02' W 122°03'1212.5
2017-Jan-18 01:33N 35°51' W 121°55'1312.6
2017-Jan-18 00:33N 35°41' W 121°47'1212.4
2017-Jan-17 23:33N 35°30' W 121°39'1212.5
2017-Jan-17 22:33N 35°19' W 121°32'1312.8
2017-Jan-17 21:33N 35°08' W 121°24'1313.0
2017-Jan-17 20:33N 34°57' W 121°16'1111.5
2017-Jan-17 19:33N 34°47' W 121°09'1311.0
2017-Jan-17 18:21N 34°36' W 121°00'911.0
2017-Jan-17 17:32N 34°28' W 120°55'4410.9
2017-Jan-17 13:31N 34°15' W 120°04'1010.8
2017-Jan-17 12:34N 34°12' W 119°52'1110.8
2017-Jan-17 11:34N 34°10' W 119°39'1111.3
2017-Jan-17 10:33N 34°07' W 119°26'1111.4
2017-Jan-17 09:33N 34°03' W 119°13'1111.3
2017-Jan-17 08:33N 33°58' W 119°01'1110.6
2017-Jan-17 07:33N 33°52' W 118°50'1010.4
2017-Jan-17 06:34N 33°47' W 118°39'1110.1
2017-Jan-17 05:29N 33°42' W 118°28'13 9.5
2017-Jan-17 04:06N 33°38' W 118°13'5 9.4
2017-Jan-17 03:33N 33°43' W 118°11'2 0.4
2017-Jan-16 23:20N 33°45' W 118°12'0 0.0
2017-Jan-15 08:14N 33°45' W 118°12'0 0.0
2017-Jan-15 07:26N 33°45' W 118°12'0 0.0
2017-Jan-15 06:20N 33°45' W 118°12'0 0.0
2017-Jan-15 05:32N 33°45' W 118°12'0 0.0
2017-Jan-15 02:23N 33°45' W 118°12'0 0.0
2017-Jan-15 01:32N 33°45' W 118°12'0 0.0
2017-Jan-15 00:32N 33°45' W 118°12'0 0.0
2017-Jan-14 23:26N 33°45' W 118°12'0 0.0
2017-Jan-14 22:32N 33°45' W 118°12'0 0.0
2017-Jan-14 21:32N 33°45' W 118°12'0 0.0
2017-Jan-14 20:20N 33°45' W 118°12'0 0.0
2017-Jan-14 19:29N 33°45' W 118°12'0 0.0
2017-Jan-13 13:23N 33°45' W 118°12'5 5.9
2017-Jan-13 12:30N 33°39' W 118°11'5 5.0
2017-Jan-13 11:33N 33°36' W 118°15'  

Dump ship's entire track history